sensor_id;sensor_type;location;lat;lon;timestamp;P1;durP1;ratioP1;P2;durP2;ratioP2
67556;SDS011;54387;53.526;49.300;2023-12-20T00:00:11;3.75;;;2.00;;
67556;SDS011;54387;53.526;49.300;2023-12-20T00:02:38;6.28;;;1.98;;
67556;SDS011;54387;53.526;49.300;2023-12-20T00:05:04;6.82;;;2.45;;
67556;SDS011;54387;53.526;49.300;2023-12-20T00:07:31;3.63;;;1.60;;
67556;SDS011;54387;53.526;49.300;2023-12-20T00:09:58;4.60;;;2.20;;
67556;SDS011;54387;53.526;49.300;2023-12-20T00:12:24;3.75;;;1.77;;
67556;SDS011;54387;53.526;49.300;2023-12-20T00:14:50;3.50;;;1.48;;
67556;SDS011;54387;53.526;49.300;2023-12-20T00:17:17;5.00;;;2.17;;
67556;SDS011;54387;53.526;49.300;2023-12-20T00:19:43;3.30;;;1.95;;
67556;SDS011;54387;53.526;49.300;2023-12-20T00:22:09;4.03;;;1.85;;
67556;SDS011;54387;53.526;49.300;2023-12-20T00:24:36;2.20;;;1.20;;
67556;SDS011;54387;53.526;49.300;2023-12-20T00:27:02;4.63;;;2.30;;
67556;SDS011;54387;53.526;49.300;2023-12-20T00:29:29;5.03;;;1.70;;
67556;SDS011;54387;53.526;49.300;2023-12-20T00:31:55;4.03;;;2.15;;
67556;SDS011;54387;53.526;49.300;2023-12-20T00:34:21;3.33;;;2.03;;
67556;SDS011;54387;53.526;49.300;2023-12-20T00:36:47;6.18;;;3.03;;
67556;SDS011;54387;53.526;49.300;2023-12-20T00:39:14;5.20;;;3.08;;
67556;SDS011;54387;53.526;49.300;2023-12-20T00:41:40;6.25;;;2.15;;
67556;SDS011;54387;53.526;49.300;2023-12-20T00:44:06;5.20;;;2.97;;
67556;SDS011;54387;53.526;49.300;2023-12-20T00:46:32;6.43;;;2.30;;
67556;SDS011;54387;53.526;49.300;2023-12-20T00:48:58;5.05;;;2.70;;
67556;SDS011;54387;53.526;49.300;2023-12-20T00:51:24;5.10;;;2.42;;
67556;SDS011;54387;53.526;49.300;2023-12-20T00:53:50;3.53;;;2.08;;
67556;SDS011;54387;53.526;49.300;2023-12-20T00:56:20;2.80;;;1.60;;
67556;SDS011;54387;53.526;49.300;2023-12-20T00:58:46;5.18;;;2.75;;
67556;SDS011;54387;53.526;49.300;2023-12-20T01:01:12;3.88;;;1.83;;
67556;SDS011;54387;53.526;49.300;2023-12-20T01:03:39;4.13;;;2.00;;
67556;SDS011;54387;53.526;49.300;2023-12-20T01:06:05;3.15;;;1.92;;
67556;SDS011;54387;53.526;49.300;2023-12-20T01:08:31;3.58;;;1.70;;
67556;SDS011;54387;53.526;49.300;2023-12-20T01:10:59;3.08;;;1.70;;
67556;SDS011;54387;53.526;49.300;2023-12-20T01:13:26;5.50;;;2.50;;
67556;SDS011;54387;53.526;49.300;2023-12-20T01:15:52;2.78;;;1.73;;
67556;SDS011;54387;53.526;49.300;2023-12-20T01:18:18;3.13;;;2.08;;
67556;SDS011;54387;53.526;49.300;2023-12-20T01:20:44;4.78;;;2.00;;
67556;SDS011;54387;53.526;49.300;2023-12-20T01:23:10;2.95;;;1.45;;
67556;SDS011;54387;53.526;49.300;2023-12-20T01:25:37;2.95;;;1.75;;
67556;SDS011;54387;53.526;49.300;2023-12-20T01:28:03;3.67;;;1.77;;
67556;SDS011;54387;53.526;49.300;2023-12-20T01:30:29;3.00;;;1.73;;
67556;SDS011;54387;53.526;49.300;2023-12-20T01:33:00;3.63;;;1.75;;
67556;SDS011;54387;53.526;49.300;2023-12-20T01:35:27;3.70;;;1.20;;
67556;SDS011;54387;53.526;49.300;2023-12-20T01:37:53;3.10;;;1.80;;
67556;SDS011;54387;53.526;49.300;2023-12-20T01:40:22;3.80;;;1.42;;
67556;SDS011;54387;53.526;49.300;2023-12-20T01:43:02;2.55;;;1.38;;
67556;SDS011;54387;53.526;49.300;2023-12-20T01:45:32;2.20;;;1.25;;
67556;SDS011;54387;53.526;49.300;2023-12-20T01:47:59;3.50;;;2.00;;
67556;SDS011;54387;53.526;49.300;2023-12-20T01:50:27;4.07;;;1.40;;
67556;SDS011;54387;53.526;49.300;2023-12-20T01:52:55;2.50;;;0.80;;
67556;SDS011;54387;53.526;49.300;2023-12-20T01:55:23;3.53;;;2.03;;
67556;SDS011;54387;53.526;49.300;2023-12-20T01:57:51;2.80;;;1.35;;
67556;SDS011;54387;53.526;49.300;2023-12-20T02:00:17;3.42;;;1.70;;
67556;SDS011;54387;53.526;49.300;2023-12-20T02:02:48;3.35;;;1.63;;
67556;SDS011;54387;53.526;49.300;2023-12-20T02:05:18;3.78;;;1.80;;
67556;SDS011;54387;53.526;49.300;2023-12-20T02:07:45;1.98;;;1.15;;
67556;SDS011;54387;53.526;49.300;2023-12-20T02:10:11;1.80;;;1.00;;
67556;SDS011;54387;53.526;49.300;2023-12-20T02:12:38;2.72;;;1.17;;
67556;SDS011;54387;53.526;49.300;2023-12-20T02:15:05;2.55;;;1.40;;
67556;SDS011;54387;53.526;49.300;2023-12-20T02:17:32;2.25;;;1.08;;
67556;SDS011;54387;53.526;49.300;2023-12-20T02:19:59;2.63;;;1.40;;
67556;SDS011;54387;53.526;49.300;2023-12-20T02:22:26;1.73;;;1.10;;
67556;SDS011;54387;53.526;49.300;2023-12-20T02:24:52;3.55;;;1.70;;
67556;SDS011;54387;53.526;49.300;2023-12-20T02:27:19;1.33;;;0.82;;
67556;SDS011;54387;53.526;49.300;2023-12-20T02:29:46;3.50;;;1.77;;
67556;SDS011;54387;53.526;49.300;2023-12-20T02:32:14;4.03;;;1.88;;
67556;SDS011;54387;53.526;49.300;2023-12-20T02:34:40;3.25;;;1.52;;
67556;SDS011;54387;53.526;49.300;2023-12-20T02:37:06;3.45;;;1.58;;
67556;SDS011;54387;53.526;49.300;2023-12-20T02:39:32;3.55;;;1.30;;
67556;SDS011;54387;53.526;49.300;2023-12-20T02:41:58;3.10;;;1.00;;
67556;SDS011;54387;53.526;49.300;2023-12-20T02:44:25;5.15;;;1.80;;
67556;SDS011;54387;53.526;49.300;2023-12-20T02:46:51;1.42;;;0.73;;
67556;SDS011;54387;53.526;49.300;2023-12-20T02:49:17;3.15;;;1.42;;
67556;SDS011;54387;53.526;49.300;2023-12-20T02:51:43;2.25;;;1.33;;
67556;SDS011;54387;53.526;49.300;2023-12-20T02:54:09;2.72;;;1.20;;
67556;SDS011;54387;53.526;49.300;2023-12-20T02:56:36;2.88;;;1.30;;
67556;SDS011;54387;53.526;49.300;2023-12-20T02:59:02;2.35;;;1.02;;
67556;SDS011;54387;53.526;49.300;2023-12-20T03:01:31;2.22;;;0.98;;
67556;SDS011;54387;53.526;49.300;2023-12-20T03:03:57;6.35;;;1.05;;
67556;SDS011;54387;53.526;49.300;2023-12-20T03:06:23;2.17;;;0.60;;
67556;SDS011;54387;53.526;49.300;2023-12-20T03:08:50;1.05;;;0.60;;
67556;SDS011;54387;53.526;49.300;2023-12-20T03:11:16;2.72;;;1.08;;
67556;SDS011;54387;53.526;49.300;2023-12-20T03:13:42;2.00;;;0.80;;
67556;SDS011;54387;53.526;49.300;2023-12-20T03:16:09;1.13;;;0.60;;
67556;SDS011;54387;53.526;49.300;2023-12-20T03:18:36;1.73;;;0.77;;
67556;SDS011;54387;53.526;49.300;2023-12-20T03:21:02;1.45;;;0.75;;
67556;SDS011;54387;53.526;49.300;2023-12-20T03:23:29;1.65;;;0.80;;
67556;SDS011;54387;53.526;49.300;2023-12-20T03:25:58;1.02;;;0.63;;
67556;SDS011;54387;53.526;49.300;2023-12-20T03:28:29;1.35;;;0.70;;
67556;SDS011;54387;53.526;49.300;2023-12-20T03:30:56;1.88;;;0.70;;
67556;SDS011;54387;53.526;49.300;2023-12-20T03:33:22;1.05;;;0.60;;
67556;SDS011;54387;53.526;49.300;2023-12-20T03:35:48;1.60;;;0.70;;
67556;SDS011;54387;53.526;49.300;2023-12-20T03:38:15;1.00;;;0.70;;
67556;SDS011;54387;53.526;49.300;2023-12-20T03:40:41;0.95;;;0.65;;
67556;SDS011;54387;53.526;49.300;2023-12-20T03:43:08;2.00;;;0.95;;
67556;SDS011;54387;53.526;49.300;2023-12-20T03:45:34;1.45;;;0.68;;
67556;SDS011;54387;53.526;49.300;2023-12-20T03:48:01;1.48;;;0.60;;
67556;SDS011;54387;53.526;49.300;2023-12-20T03:50:27;1.58;;;0.80;;
67556;SDS011;54387;53.526;49.300;2023-12-20T03:52:54;1.30;;;0.60;;
67556;SDS011;54387;53.526;49.300;2023-12-20T03:55:21;3.13;;;0.80;;
67556;SDS011;54387;53.526;49.300;2023-12-20T03:57:47;1.33;;;0.50;;
67556;SDS011;54387;53.526;49.300;2023-12-20T04:00:14;0.98;;;0.60;;
67556;SDS011;54387;53.526;49.300;2023-12-20T04:02:41;1.98;;;0.90;;
67556;SDS011;54387;53.526;49.300;2023-12-20T04:05:08;1.38;;;0.57;;
67556;SDS011;54387;53.526;49.300;2023-12-20T04:07:35;1.65;;;0.77;;
67556;SDS011;54387;53.526;49.300;2023-12-20T04:10:02;2.35;;;0.80;;
67556;SDS011;54387;53.526;49.300;2023-12-20T04:12:32;0.75;;;0.63;;
67556;SDS011;54387;53.526;49.300;2023-12-20T04:14:59;1.20;;;0.63;;
67556;SDS011;54387;53.526;49.300;2023-12-20T04:17:25;1.73;;;0.90;;
67556;SDS011;54387;53.526;49.300;2023-12-20T04:19:52;0.60;;;0.55;;
67556;SDS011;54387;53.526;49.300;2023-12-20T04:22:18;1.10;;;0.60;;
67556;SDS011;54387;53.526;49.300;2023-12-20T04:24:45;2.05;;;0.75;;
67556;SDS011;54387;53.526;49.300;2023-12-20T04:27:11;1.63;;;0.82;;
67556;SDS011;54387;53.526;49.300;2023-12-20T04:29:38;1.85;;;0.70;;
67556;SDS011;54387;53.526;49.300;2023-12-20T04:32:04;1.20;;;0.80;;
67556;SDS011;54387;53.526;49.300;2023-12-20T04:34:31;1.55;;;0.80;;
67556;SDS011;54387;53.526;49.300;2023-12-20T04:36:57;1.75;;;0.70;;
67556;SDS011;54387;53.526;49.300;2023-12-20T04:39:23;3.00;;;0.70;;
67556;SDS011;54387;53.526;49.300;2023-12-20T04:41:50;0.57;;;0.40;;
67556;SDS011;54387;53.526;49.300;2023-12-20T04:44:16;1.27;;;0.60;;
67556;SDS011;54387;53.526;49.300;2023-12-20T04:46:42;1.13;;;0.50;;
67556;SDS011;54387;53.526;49.300;2023-12-20T04:49:08;1.60;;;0.93;;
67556;SDS011;54387;53.526;49.300;2023-12-20T04:51:35;2.40;;;0.98;;
67556;SDS011;54387;53.526;49.300;2023-12-20T04:54:01;1.48;;;0.77;;
67556;SDS011;54387;53.526;49.300;2023-12-20T04:56:28;1.58;;;0.70;;
67556;SDS011;54387;53.526;49.300;2023-12-20T04:58:54;1.10;;;0.75;;
67556;SDS011;54387;53.526;49.300;2023-12-20T05:01:21;1.90;;;0.90;;
67556;SDS011;54387;53.526;49.300;2023-12-20T05:03:47;1.98;;;0.80;;
67556;SDS011;54387;53.526;49.300;2023-12-20T05:06:13;1.40;;;0.70;;
67556;SDS011;54387;53.526;49.300;2023-12-20T05:08:40;1.77;;;0.60;;
67556;SDS011;54387;53.526;49.300;2023-12-20T05:11:06;2.97;;;1.13;;
67556;SDS011;54387;53.526;49.300;2023-12-20T05:13:33;1.40;;;0.73;;
67556;SDS011;54387;53.526;49.300;2023-12-20T05:16:04;1.10;;;0.65;;
67556;SDS011;54387;53.526;49.300;2023-12-20T05:18:31;1.45;;;0.80;;
67556;SDS011;54387;53.526;49.300;2023-12-20T05:20:58;3.13;;;0.70;;
67556;SDS011;54387;53.526;49.300;2023-12-20T05:23:25;2.30;;;0.88;;
67556;SDS011;54387;53.526;49.300;2023-12-20T05:25:51;2.05;;;0.75;;
67556;SDS011;54387;53.526;49.300;2023-12-20T05:28:17;1.75;;;0.80;;
67556;SDS011;54387;53.526;49.300;2023-12-20T05:30:43;2.28;;;0.52;;
67556;SDS011;54387;53.526;49.300;2023-12-20T05:33:10;1.73;;;0.60;;
67556;SDS011;54387;53.526;49.300;2023-12-20T05:35:36;1.52;;;0.50;;
67556;SDS011;54387;53.526;49.300;2023-12-20T05:38:03;1.13;;;0.65;;
67556;SDS011;54387;53.526;49.300;2023-12-20T05:40:29;1.77;;;0.80;;
67556;SDS011;54387;53.526;49.300;2023-12-20T05:42:56;1.75;;;0.70;;
67556;SDS011;54387;53.526;49.300;2023-12-20T05:45:22;1.70;;;0.70;;
67556;SDS011;54387;53.526;49.300;2023-12-20T05:47:49;0.95;;;0.52;;
67556;SDS011;54387;53.526;49.300;2023-12-20T05:50:15;2.05;;;0.55;;
67556;SDS011;54387;53.526;49.300;2023-12-20T05:52:41;1.38;;;0.80;;
67556;SDS011;54387;53.526;49.300;2023-12-20T05:55:08;1.80;;;0.75;;
67556;SDS011;54387;53.526;49.300;2023-12-20T05:57:34;1.35;;;0.70;;
67556;SDS011;54387;53.526;49.300;2023-12-20T06:00:02;1.38;;;0.90;;
67556;SDS011;54387;53.526;49.300;2023-12-20T06:02:29;0.80;;;0.60;;
67556;SDS011;54387;53.526;49.300;2023-12-20T06:04:55;0.88;;;0.50;;
67556;SDS011;54387;53.526;49.300;2023-12-20T06:07:22;2.72;;;0.80;;
67556;SDS011;54387;53.526;49.300;2023-12-20T06:09:48;1.77;;;0.90;;
67556;SDS011;54387;53.526;49.300;2023-12-20T06:12:14;2.22;;;0.75;;
67556;SDS011;54387;53.526;49.300;2023-12-20T06:14:41;1.50;;;0.80;;
67556;SDS011;54387;53.526;49.300;2023-12-20T06:17:07;1.13;;;0.50;;
67556;SDS011;54387;53.526;49.300;2023-12-20T06:19:34;1.15;;;0.60;;
67556;SDS011;54387;53.526;49.300;2023-12-20T06:22:00;2.03;;;0.98;;
67556;SDS011;54387;53.526;49.300;2023-12-20T06:24:27;0.95;;;0.60;;
67556;SDS011;54387;53.526;49.300;2023-12-20T06:26:54;1.83;;;0.88;;
67556;SDS011;54387;53.526;49.300;2023-12-20T06:29:21;2.15;;;0.70;;
67556;SDS011;54387;53.526;49.300;2023-12-20T06:31:47;2.42;;;0.65;;
67556;SDS011;54387;53.526;49.300;2023-12-20T06:34:14;1.90;;;1.30;;
67556;SDS011;54387;53.526;49.300;2023-12-20T06:36:40;1.42;;;0.60;;
67556;SDS011;54387;53.526;49.300;2023-12-20T06:39:07;1.33;;;0.47;;
67556;SDS011;54387;53.526;49.300;2023-12-20T06:41:34;1.25;;;0.60;;
67556;SDS011;54387;53.526;49.300;2023-12-20T06:44:00;1.17;;;0.70;;
67556;SDS011;54387;53.526;49.300;2023-12-20T06:46:27;3.63;;;0.65;;
67556;SDS011;54387;53.526;49.300;2023-12-20T06:48:53;0.60;;;0.43;;
67556;SDS011;54387;53.526;49.300;2023-12-20T06:51:20;1.00;;;0.60;;
67556;SDS011;54387;53.526;49.300;2023-12-20T06:53:46;2.25;;;0.60;;
67556;SDS011;54387;53.526;49.300;2023-12-20T06:56:13;1.55;;;0.30;;
67556;SDS011;54387;53.526;49.300;2023-12-20T06:58:39;0.43;;;0.43;;
67556;SDS011;54387;53.526;49.300;2023-12-20T07:01:07;0.70;;;0.50;;
67556;SDS011;54387;53.526;49.300;2023-12-20T07:03:40;1.60;;;0.60;;
67556;SDS011;54387;53.526;49.300;2023-12-20T07:06:07;1.13;;;0.65;;
67556;SDS011;54387;53.526;49.300;2023-12-20T07:08:34;0.63;;;0.40;;
67556;SDS011;54387;53.526;49.300;2023-12-20T07:11:00;1.15;;;0.60;;
67556;SDS011;54387;53.526;49.300;2023-12-20T07:13:27;0.70;;;0.50;;
67556;SDS011;54387;53.526;49.300;2023-12-20T07:15:53;1.75;;;0.68;;
67556;SDS011;54387;53.526;49.300;2023-12-20T07:18:20;0.95;;;0.47;;
67556;SDS011;54387;53.526;49.300;2023-12-20T07:20:46;2.10;;;0.50;;
67556;SDS011;54387;53.526;49.300;2023-12-20T07:23:13;1.65;;;0.50;;
67556;SDS011;54387;53.526;49.300;2023-12-20T07:25:40;0.85;;;0.52;;
67556;SDS011;54387;53.526;49.300;2023-12-20T07:28:06;0.82;;;0.30;;
67556;SDS011;54387;53.526;49.300;2023-12-20T07:30:33;0.55;;;0.40;;
67556;SDS011;54387;53.526;49.300;2023-12-20T07:32:59;0.93;;;0.30;;
67556;SDS011;54387;53.526;49.300;2023-12-20T07:35:26;1.80;;;0.47;;
67556;SDS011;54387;53.526;49.300;2023-12-20T07:37:52;0.73;;;0.40;;
67556;SDS011;54387;53.526;49.300;2023-12-20T07:40:19;0.65;;;0.43;;
67556;SDS011;54387;53.526;49.300;2023-12-20T07:42:45;0.40;;;0.32;;
67556;SDS011;54387;53.526;49.300;2023-12-20T07:45:11;0.50;;;0.38;;
67556;SDS011;54387;53.526;49.300;2023-12-20T07:47:37;0.45;;;0.25;;
67556;SDS011;54387;53.526;49.300;2023-12-20T07:50:04;1.95;;;0.40;;
67556;SDS011;54387;53.526;49.300;2023-12-20T07:52:30;0.75;;;0.60;;
67556;SDS011;54387;53.526;49.300;2023-12-20T07:54:57;0.40;;;0.40;;
67556;SDS011;54387;53.526;49.300;2023-12-20T07:57:23;1.13;;;0.40;;
67556;SDS011;54387;53.526;49.300;2023-12-20T07:59:49;1.90;;;0.35;;
67556;SDS011;54387;53.526;49.300;2023-12-20T08:02:16;0.60;;;0.30;;
67556;SDS011;54387;53.526;49.300;2023-12-20T08:04:42;0.30;;;0.20;;
67556;SDS011;54387;53.526;49.300;2023-12-20T08:07:08;0.95;;;0.30;;
67556;SDS011;54387;53.526;49.300;2023-12-20T08:09:37;0.90;;;0.40;;
67556;SDS011;54387;53.526;49.300;2023-12-20T08:12:04;0.50;;;0.30;;
67556;SDS011;54387;53.526;49.300;2023-12-20T08:14:30;1.25;;;0.52;;
67556;SDS011;54387;53.526;49.300;2023-12-20T08:16:57;0.90;;;0.30;;
67556;SDS011;54387;53.526;49.300;2023-12-20T08:19:23;1.27;;;0.45;;
67556;SDS011;54387;53.526;49.300;2023-12-20T08:21:49;1.35;;;0.50;;
67556;SDS011;54387;53.526;49.300;2023-12-20T08:24:16;0.38;;;0.25;;
67556;SDS011;54387;53.526;49.300;2023-12-20T08:26:42;0.73;;;0.40;;
67556;SDS011;54387;53.526;49.300;2023-12-20T08:29:08;2.03;;;0.70;;
67556;SDS011;54387;53.526;49.300;2023-12-20T08:31:34;0.50;;;0.30;;
67556;SDS011;54387;53.526;49.300;2023-12-20T08:34:01;0.32;;;0.20;;
67556;SDS011;54387;53.526;49.300;2023-12-20T08:36:27;1.48;;;0.40;;
67556;SDS011;54387;53.526;49.300;2023-12-20T08:38:54;0.30;;;0.30;;
67556;SDS011;54387;53.526;49.300;2023-12-20T08:41:21;0.50;;;0.35;;
67556;SDS011;54387;53.526;49.300;2023-12-20T08:43:47;0.93;;;0.43;;
67556;SDS011;54387;53.526;49.300;2023-12-20T08:46:14;0.73;;;0.40;;
67556;SDS011;54387;53.526;49.300;2023-12-20T08:48:41;0.40;;;0.30;;
67556;SDS011;54387;53.526;49.300;2023-12-20T08:51:08;0.85;;;0.45;;
67556;SDS011;54387;53.526;49.300;2023-12-20T08:53:35;0.93;;;0.45;;
67556;SDS011;54387;53.526;49.300;2023-12-20T08:56:02;0.55;;;0.30;;
67556;SDS011;54387;53.526;49.300;2023-12-20T08:58:29;0.40;;;0.30;;
67556;SDS011;54387;53.526;49.300;2023-12-20T09:00:55;0.93;;;0.35;;
67556;SDS011;54387;53.526;49.300;2023-12-20T09:03:23;1.00;;;0.40;;
67556;SDS011;54387;53.526;49.300;2023-12-20T09:05:49;1.35;;;0.40;;
67556;SDS011;54387;53.526;49.300;2023-12-20T09:08:16;0.38;;;0.30;;
67556;SDS011;54387;53.526;49.300;2023-12-20T09:10:42;0.80;;;0.50;;
67556;SDS011;54387;53.526;49.300;2023-12-20T09:13:10;0.95;;;0.50;;
67556;SDS011;54387;53.526;49.300;2023-12-20T09:15:36;2.08;;;0.50;;
67556;SDS011;54387;53.526;49.300;2023-12-20T09:18:02;1.90;;;0.30;;
67556;SDS011;54387;53.526;49.300;2023-12-20T09:20:29;1.45;;;0.50;;
67556;SDS011;54387;53.526;49.300;2023-12-20T09:22:56;0.88;;;0.50;;
67556;SDS011;54387;53.526;49.300;2023-12-20T09:25:22;0.50;;;0.30;;
67556;SDS011;54387;53.526;49.300;2023-12-20T09:27:49;0.68;;;0.40;;
67556;SDS011;54387;53.526;49.300;2023-12-20T09:30:15;0.28;;;0.25;;
67556;SDS011;54387;53.526;49.300;2023-12-20T09:32:42;0.88;;;0.40;;
67556;SDS011;54387;53.526;49.300;2023-12-20T09:35:08;0.77;;;0.55;;
67556;SDS011;54387;53.526;49.300;2023-12-20T09:37:35;0.82;;;0.35;;
67556;SDS011;54387;53.526;49.300;2023-12-20T09:40:01;0.65;;;0.32;;
67556;SDS011;54387;53.526;49.300;2023-12-20T09:42:32;1.45;;;0.45;;
67556;SDS011;54387;53.526;49.300;2023-12-20T09:45:23;2.15;;;0.50;;
67556;SDS011;54387;53.526;49.300;2023-12-20T09:47:52;0.80;;;0.40;;
67556;SDS011;54387;53.526;49.300;2023-12-20T09:50:20;2.60;;;0.55;;
67556;SDS011;54387;53.526;49.300;2023-12-20T09:52:49;0.28;;;0.22;;
67556;SDS011;54387;53.526;49.300;2023-12-20T09:55:17;1.27;;;0.50;;
67556;SDS011;54387;53.526;49.300;2023-12-20T09:57:47;0.95;;;0.40;;
67556;SDS011;54387;53.526;49.300;2023-12-20T10:00:14;2.80;;;0.90;;
67556;SDS011;54387;53.526;49.300;2023-12-20T10:03:01;3.60;;;0.60;;
67556;SDS011;54387;53.526;49.300;2023-12-20T10:05:28;0.98;;;0.40;;
67556;SDS011;54387;53.526;49.300;2023-12-20T10:07:57;0.75;;;0.65;;
67556;SDS011;54387;53.526;49.300;2023-12-20T10:10:25;1.00;;;0.60;;
67556;SDS011;54387;53.526;49.300;2023-12-20T10:13:05;2.97;;;0.63;;
67556;SDS011;54387;53.526;49.300;2023-12-20T10:15:33;2.10;;;0.68;;
67556;SDS011;54387;53.526;49.300;2023-12-20T10:18:03;1.00;;;0.52;;
67556;SDS011;54387;53.526;49.300;2023-12-20T10:20:31;2.08;;;0.70;;
67556;SDS011;54387;53.526;49.300;2023-12-20T10:22:58;1.00;;;0.60;;
67556;SDS011;54387;53.526;49.300;2023-12-20T10:25:26;0.90;;;0.60;;
67556;SDS011;54387;53.526;49.300;2023-12-20T10:28:08;0.75;;;0.60;;
67556;SDS011;54387;53.526;49.300;2023-12-20T10:30:36;1.65;;;0.77;;
67556;SDS011;54387;53.526;49.300;2023-12-20T10:33:04;0.90;;;0.80;;
67556;SDS011;54387;53.526;49.300;2023-12-20T10:35:32;1.77;;;1.00;;
67556;SDS011;54387;53.526;49.300;2023-12-20T10:38:00;1.30;;;0.65;;
67556;SDS011;54387;53.526;49.300;2023-12-20T10:40:30;0.60;;;0.50;;
67556;SDS011;54387;53.526;49.300;2023-12-20T10:42:57;0.88;;;0.60;;
67556;SDS011;54387;53.526;49.300;2023-12-20T10:45:25;1.60;;;0.70;;
67556;SDS011;54387;53.526;49.300;2023-12-20T10:47:52;1.88;;;0.70;;
67556;SDS011;54387;53.526;49.300;2023-12-20T10:50:19;0.95;;;0.70;;
67556;SDS011;54387;53.526;49.300;2023-12-20T10:52:46;2.38;;;1.10;;
67556;SDS011;54387;53.526;49.300;2023-12-20T10:55:13;2.30;;;0.68;;
67556;SDS011;54387;53.526;49.300;2023-12-20T10:57:40;1.23;;;0.98;;
67556;SDS011;54387;53.526;49.300;2023-12-20T11:00:08;1.08;;;0.65;;
67556;SDS011;54387;53.526;49.300;2023-12-20T11:02:39;1.30;;;0.70;;
67556;SDS011;54387;53.526;49.300;2023-12-20T11:05:13;0.88;;;0.50;;
67556;SDS011;54387;53.526;49.300;2023-12-20T11:07:48;1.10;;;0.60;;
67556;SDS011;54387;53.526;49.300;2023-12-20T11:10:24;2.80;;;0.70;;
67556;SDS011;54387;53.526;49.300;2023-12-20T11:13:07;1.55;;;0.80;;
67556;SDS011;54387;53.526;49.300;2023-12-20T11:15:55;0.93;;;0.60;;
67556;SDS011;54387;53.526;49.300;2023-12-20T11:18:28;0.45;;;0.40;;
67556;SDS011;54387;53.526;49.300;2023-12-20T11:23:26;1.00;;;0.70;;
67556;SDS011;54387;53.526;49.300;2023-12-20T11:25:53;2.35;;;1.00;;
67556;SDS011;54387;53.526;49.300;2023-12-20T11:28:24;1.33;;;0.52;;
67556;SDS011;54387;53.526;49.300;2023-12-20T11:30:52;1.67;;;1.00;;
67556;SDS011;54387;53.526;49.300;2023-12-20T11:33:23;1.50;;;0.80;;
67556;SDS011;54387;53.526;49.300;2023-12-20T11:36:14;2.20;;;1.00;;
67556;SDS011;54387;53.526;49.300;2023-12-20T11:38:56;1.10;;;0.80;;
67556;SDS011;54387;53.526;49.300;2023-12-20T11:41:23;2.00;;;0.88;;
67556;SDS011;54387;53.526;49.300;2023-12-20T11:43:54;2.63;;;1.13;;
67556;SDS011;54387;53.526;49.300;2023-12-20T11:46:22;1.70;;;1.00;;
67556;SDS011;54387;53.526;49.300;2023-12-20T11:48:49;1.70;;;1.10;;
67556;SDS011;54387;53.526;49.300;2023-12-20T11:51:16;4.07;;;1.40;;
67556;SDS011;54387;53.526;49.300;2023-12-20T11:53:44;2.08;;;0.85;;
67556;SDS011;54387;53.526;49.300;2023-12-20T11:56:10;2.20;;;1.20;;
67556;SDS011;54387;53.526;49.300;2023-12-20T11:58:38;4.35;;;1.00;;
67556;SDS011;54387;53.526;49.300;2023-12-20T12:01:04;2.05;;;1.20;;
67556;SDS011;54387;53.526;49.300;2023-12-20T12:03:33;1.33;;;0.88;;
67556;SDS011;54387;53.526;49.300;2023-12-20T12:05:59;1.98;;;0.90;;
67556;SDS011;54387;53.526;49.300;2023-12-20T12:08:26;0.82;;;0.60;;
67556;SDS011;54387;53.526;49.300;2023-12-20T12:10:53;1.42;;;0.82;;
67556;SDS011;54387;53.526;49.300;2023-12-20T12:13:19;1.00;;;0.80;;
67556;SDS011;54387;53.526;49.300;2023-12-20T12:15:47;1.65;;;0.60;;
67556;SDS011;54387;53.526;49.300;2023-12-20T12:18:17;1.20;;;0.70;;
67556;SDS011;54387;53.526;49.300;2023-12-20T12:20:44;2.47;;;0.95;;
67556;SDS011;54387;53.526;49.300;2023-12-20T12:23:11;2.65;;;0.88;;
67556;SDS011;54387;53.526;49.300;2023-12-20T12:25:38;1.60;;;0.80;;
67556;SDS011;54387;53.526;49.300;2023-12-20T12:28:04;3.08;;;0.95;;
67556;SDS011;54387;53.526;49.300;2023-12-20T12:30:31;1.98;;;0.98;;
67556;SDS011;54387;53.526;49.300;2023-12-20T12:32:57;1.05;;;0.90;;
67556;SDS011;54387;53.526;49.300;2023-12-20T12:35:24;1.50;;;0.80;;
67556;SDS011;54387;53.526;49.300;2023-12-20T12:37:50;1.23;;;0.80;;
67556;SDS011;54387;53.526;49.300;2023-12-20T12:40:17;1.38;;;0.70;;
67556;SDS011;54387;53.526;49.300;2023-12-20T12:42:44;3.17;;;1.10;;
67556;SDS011;54387;53.526;49.300;2023-12-20T12:45:11;2.63;;;1.00;;
67556;SDS011;54387;53.526;49.300;2023-12-20T12:47:40;2.53;;;0.90;;
67556;SDS011;54387;53.526;49.300;2023-12-20T12:50:06;1.85;;;1.20;;
67556;SDS011;54387;53.526;49.300;2023-12-20T12:52:33;2.55;;;1.05;;
67556;SDS011;54387;53.526;49.300;2023-12-20T12:55:01;3.03;;;1.35;;
67556;SDS011;54387;53.526;49.300;2023-12-20T12:57:29;2.90;;;1.50;;
67556;SDS011;54387;53.526;49.300;2023-12-20T12:59:55;2.95;;;1.13;;
67556;SDS011;54387;53.526;49.300;2023-12-20T13:02:21;1.60;;;0.93;;
67556;SDS011;54387;53.526;49.300;2023-12-20T13:04:48;1.00;;;0.77;;
67556;SDS011;54387;53.526;49.300;2023-12-20T13:07:14;1.45;;;0.77;;
67556;SDS011;54387;53.526;49.300;2023-12-20T13:09:40;2.70;;;1.20;;
67556;SDS011;54387;53.526;49.300;2023-12-20T13:12:07;1.90;;;1.20;;
67556;SDS011;54387;53.526;49.300;2023-12-20T13:14:34;1.30;;;0.80;;
67556;SDS011;54387;53.526;49.300;2023-12-20T13:17:02;1.90;;;1.33;;
67556;SDS011;54387;53.526;49.300;2023-12-20T13:19:29;3.60;;;1.20;;
67556;SDS011;54387;53.526;49.300;2023-12-20T13:21:56;1.23;;;0.80;;
67556;SDS011;54387;53.526;49.300;2023-12-20T13:24:23;1.98;;;1.23;;
67556;SDS011;54387;53.526;49.300;2023-12-20T13:26:50;1.98;;;1.10;;
67556;SDS011;54387;53.526;49.300;2023-12-20T13:29:16;2.45;;;1.35;;
67556;SDS011;54387;53.526;49.300;2023-12-20T13:31:43;2.17;;;1.33;;
67556;SDS011;54387;53.526;49.300;2023-12-20T13:34:09;2.78;;;1.10;;
67556;SDS011;54387;53.526;49.300;2023-12-20T13:36:36;2.13;;;1.15;;
67556;SDS011;54387;53.526;49.300;2023-12-20T13:39:03;1.88;;;1.20;;
67556;SDS011;54387;53.526;49.300;2023-12-20T13:41:30;4.00;;;1.23;;
67556;SDS011;54387;53.526;49.300;2023-12-20T13:43:57;1.80;;;1.00;;
67556;SDS011;54387;53.526;49.300;2023-12-20T13:46:23;3.47;;;1.67;;
67556;SDS011;54387;53.526;49.300;2023-12-20T13:48:50;1.63;;;1.10;;
67556;SDS011;54387;53.526;49.300;2023-12-20T13:51:16;2.05;;;1.23;;
67556;SDS011;54387;53.526;49.300;2023-12-20T13:53:43;4.47;;;1.33;;
67556;SDS011;54387;53.526;49.300;2023-12-20T13:56:10;3.72;;;2.13;;
67556;SDS011;54387;53.526;49.300;2023-12-20T13:58:36;2.58;;;1.48;;
67556;SDS011;54387;53.526;49.300;2023-12-20T14:01:03;3.40;;;1.63;;
67556;SDS011;54387;53.526;49.300;2023-12-20T14:03:29;1.92;;;1.30;;
67556;SDS011;54387;53.526;49.300;2023-12-20T14:05:56;4.07;;;2.10;;
67556;SDS011;54387;53.526;49.300;2023-12-20T14:08:23;2.85;;;1.80;;
67556;SDS011;54387;53.526;49.300;2023-12-20T14:10:49;2.90;;;1.30;;
67556;SDS011;54387;53.526;49.300;2023-12-20T14:13:16;4.00;;;2.10;;
67556;SDS011;54387;53.526;49.300;2023-12-20T14:15:47;4.70;;;2.40;;
67556;SDS011;54387;53.526;49.300;2023-12-20T14:18:15;3.50;;;2.05;;
67556;SDS011;54387;53.526;49.300;2023-12-20T14:20:42;5.07;;;2.17;;
67556;SDS011;54387;53.526;49.300;2023-12-20T14:23:10;4.15;;;2.30;;
67556;SDS011;54387;53.526;49.300;2023-12-20T14:25:36;3.10;;;2.08;;
67556;SDS011;54387;53.526;49.300;2023-12-20T14:28:03;3.13;;;1.73;;
67556;SDS011;54387;53.526;49.300;2023-12-20T14:30:30;6.00;;;2.40;;
67556;SDS011;54387;53.526;49.300;2023-12-20T14:32:56;3.67;;;1.98;;
67556;SDS011;54387;53.526;49.300;2023-12-20T14:35:22;2.88;;;1.73;;